Oak Hill, Florida
Current Conditions -  °F | °C
As of 6:47 PM on Friday 19 Dec 2014 (Local Time) from KEVB Reporting Station
Clear Clear  
Wind Chill: 57°   Ceiling: Unl
Heat Index: 57°   Visibility: 10mi
Dew Point: 55°   Wind: 0mph
Humidity: 94%   Direction: NA
Pressure: 30.11"   Gusts: NA
Location:  28.86°N, 80.85°W
Report Text: KEVB 192347Z 00000KT 10SM SKC 14/13 A3011
Loading
Personal Weather Stations






























Interactive Weather Map New forecast layout! Learn more

10-Day Weather Forecast

Advertisements
Track Severe Weather on mobile